createdAt,value
2018-09-29T00:02:23.064Z,96194.00
2018-09-29T00:04:53.131Z,96195.00
2018-09-29T00:07:22.928Z,96201.00
2018-09-29T00:09:53.138Z,96199.00
2018-09-29T00:12:23.547Z,96203.00
2018-09-29T00:14:53.463Z,96207.00
2018-09-29T00:17:23.818Z,96214.00
2018-09-29T00:19:53.637Z,96208.00
2018-09-29T00:22:23.218Z,96220.00
2018-09-29T00:24:53.004Z,96219.00
2018-09-29T00:27:22.866Z,96218.00
2018-09-29T00:29:52.698Z,96199.00
2018-09-29T00:32:23.201Z,96215.00
2018-09-29T00:34:52.786Z,96207.00
2018-09-29T00:37:22.392Z,96206.00
2018-09-29T00:39:52.246Z,96205.00
2018-09-29T00:42:22.082Z,96208.00
2018-09-29T00:44:51.753Z,96219.00
2018-09-29T00:47:21.206Z,96221.00
2018-09-29T00:49:50.838Z,96221.00
2018-09-29T00:52:21.006Z,96231.00
2018-09-29T00:54:50.686Z,96235.00
2018-09-29T00:57:21.473Z,96239.00
2018-09-29T00:59:51.219Z,96234.00
2018-09-29T01:02:20.926Z,96234.00
2018-09-29T01:04:50.359Z,96233.00
2018-09-29T01:07:19.867Z,96223.00
2018-09-29T01:09:49.489Z,96233.00
2018-09-29T01:12:19.211Z,96231.00
2018-09-29T01:14:49.441Z,96220.00
2018-09-29T01:17:19.679Z,96222.00
2018-09-29T01:19:49.209Z,96232.00
2018-09-29T01:22:19.553Z,96241.00
2018-09-29T01:24:49.223Z,96243.00
2018-09-29T01:27:18.854Z,96237.00
2018-09-29T01:29:48.654Z,96230.00
2018-09-29T01:32:18.036Z,96232.00
2018-09-29T01:34:47.756Z,96223.00
2018-09-29T01:37:17.394Z,96237.00
2018-09-29T01:39:47.143Z,96233.00
2018-09-29T01:42:16.592Z,96235.00
2018-09-29T01:44:46.230Z,96229.00
2018-09-29T01:47:15.896Z,96228.00
2018-09-29T01:49:49.852Z,96235.00
2018-09-29T01:52:19.468Z,96234.00
2018-09-29T01:54:48.873Z,96231.00
2018-09-29T01:57:18.551Z,96233.00
2018-09-29T01:59:48.148Z,96233.00
2018-09-29T02:02:21.369Z,96222.00
2018-09-29T02:04:52.447Z,96231.00
2018-09-29T02:07:22.208Z,96231.00
2018-09-29T02:09:52.451Z,96229.00
2018-09-29T02:12:21.932Z,96215.00
2018-09-29T02:14:51.542Z,96214.00
2018-09-29T02:17:21.443Z,96213.00
2018-09-29T02:19:50.946Z,96211.00
2018-09-29T02:22:20.912Z,96212.00
2018-09-29T02:24:50.513Z,96206.00
2018-09-29T02:27:21.287Z,96215.00
2018-09-29T02:29:51.953Z,96217.00
2018-09-29T02:32:21.343Z,96204.00
2018-09-29T02:34:53.102Z,96206.00
2018-09-29T02:37:23.227Z,96211.00
2018-09-29T02:39:53.649Z,96202.00
2018-09-29T02:42:23.220Z,96201.00
2018-09-29T02:44:53.822Z,96199.00
2018-09-29T02:47:24.009Z,96201.00
2018-09-29T02:49:54.090Z,96191.00
2018-09-29T02:52:23.654Z,96185.00
2018-09-29T02:54:53.408Z,96178.00
2018-09-29T02:57:22.981Z,96170.00
2018-09-29T02:59:53.238Z,96164.00
2018-09-29T03:02:23.258Z,96171.00
2018-09-29T03:04:53.118Z,96170.00
2018-09-29T03:07:22.990Z,96165.00
2018-09-29T03:09:53.200Z,96178.00
2018-09-29T03:12:23.452Z,96176.00
2018-09-29T03:14:53.506Z,96185.00
2018-09-29T03:17:23.005Z,96175.00
2018-09-29T03:19:52.744Z,96185.00
2018-09-29T03:22:22.617Z,96176.00
2018-09-29T03:24:52.898Z,96191.00
2018-09-29T03:27:22.559Z,96180.00
2018-09-29T03:29:53.981Z,96180.00
2018-09-29T03:32:23.514Z,96188.00
2018-09-29T03:34:53.699Z,96195.00
2018-09-29T03:37:23.238Z,96179.00
2018-09-29T03:39:53.621Z,96180.00
2018-09-29T03:42:23.392Z,96177.00
2018-09-29T03:44:53.847Z,96190.00
2018-09-29T03:47:23.564Z,96188.00
2018-09-29T03:49:53.157Z,96178.00
2018-09-29T03:52:22.681Z,96181.00
2018-09-29T03:54:52.356Z,96186.00
2018-09-29T03:57:22.695Z,96194.00
2018-09-29T03:59:53.044Z,96189.00
2018-09-29T04:02:23.299Z,96198.00
2018-09-29T04:04:53.845Z,96192.00
2018-09-29T04:07:23.399Z,96191.00
2018-09-29T04:09:53.252Z,96200.00
2018-09-29T04:12:22.870Z,96197.00
2018-09-29T04:14:52.388Z,96193.00
2018-09-29T04:17:21.983Z,96206.00
2018-09-29T04:19:51.613Z,96192.00
2018-09-29T04:22:21.538Z,96190.00
2018-09-29T04:24:51.041Z,96205.00
2018-09-29T04:27:20.512Z,96195.00
2018-09-29T04:29:49.950Z,96206.00
2018-09-29T04:32:19.528Z,96203.00
2018-09-29T04:34:49.153Z,96200.00
2018-09-29T04:37:18.844Z,96210.00
2018-09-29T04:39:49.089Z,96198.00
2018-09-29T04:42:19.395Z,96200.00
2018-09-29T04:44:48.938Z,96199.00
2018-09-29T04:47:22.804Z,96198.00
2018-09-29T04:49:52.476Z,96195.00
2018-09-29T04:52:22.145Z,96200.00
2018-09-29T04:54:52.322Z,96208.00
2018-09-29T04:57:22.060Z,96205.00
2018-09-29T04:59:51.610Z,96213.00
2018-09-29T05:02:21.629Z,96216.00
2018-09-29T05:04:52.233Z,96210.00
2018-09-29T05:07:21.640Z,96214.00
2018-09-29T05:09:52.073Z,96217.00
2018-09-29T05:12:21.659Z,96219.00
2018-09-29T05:14:51.837Z,96216.00
2018-09-29T05:17:21.445Z,96222.00
2018-09-29T05:19:52.040Z,96229.00
2018-09-29T05:22:22.111Z,96233.00
2018-09-29T05:24:51.875Z,96244.00
2018-09-29T05:27:21.925Z,96239.00
2018-09-29T05:29:51.719Z,96240.00
2018-09-29T05:32:22.064Z,96245.00
2018-09-29T05:34:51.619Z,96245.00
2018-09-29T05:37:21.682Z,96237.00
2018-09-29T05:39:51.248Z,96239.00
2018-09-29T05:42:20.834Z,96248.00
2018-09-29T05:44:50.536Z,96235.00
2018-09-29T05:47:21.207Z,96242.00
2018-09-29T05:49:50.777Z,96243.00
2018-09-29T05:52:20.351Z,96252.00
2018-09-29T05:54:49.865Z,96247.00
2018-09-29T05:57:19.736Z,96248.00
2018-09-29T05:59:49.663Z,96250.00
2018-09-29T06:02:20.083Z,96249.00
2018-09-29T06:04:49.989Z,96241.00
2018-09-29T06:07:19.673Z,96244.00
2018-09-29T06:09:50.151Z,96247.00
2018-09-29T06:12:20.647Z,96266.00
2018-09-29T06:14:50.124Z,96248.00
2018-09-29T06:17:20.205Z,96248.00
2018-09-29T06:19:50.236Z,96256.00
2018-09-29T06:22:20.335Z,96253.00
2018-09-29T06:24:49.912Z,96262.00
2018-09-29T06:27:20.658Z,96266.00
2018-09-29T06:29:50.378Z,96264.00
2018-09-29T06:32:20.850Z,96267.00
2018-09-29T06:34:50.426Z,96266.00
2018-09-29T06:37:20.791Z,96263.00
2018-09-29T06:39:50.432Z,96266.00
2018-09-29T06:42:20.750Z,96267.00
2018-09-29T06:44:50.630Z,96266.00
2018-09-29T06:47:21.251Z,96261.00
2018-09-29T06:49:50.724Z,96268.00
2018-09-29T06:52:20.451Z,96259.00
2018-09-29T06:54:51.031Z,96256.00
2018-09-29T06:57:21.286Z,96266.00
2018-09-29T06:59:52.221Z,96268.00
2018-09-29T07:02:21.737Z,96276.00
2018-09-29T07:04:51.268Z,96272.00
2018-09-29T07:07:21.033Z,96285.00
2018-09-29T07:09:50.705Z,96287.00
2018-09-29T07:12:20.530Z,96279.00
2018-09-29T07:14:55.836Z,96280.00
2018-09-29T07:17:25.483Z,96277.00
2018-09-29T07:19:55.045Z,96283.00
2018-09-29T07:22:25.466Z,96291.00
2018-09-29T07:24:55.281Z,96289.00
2018-09-29T07:27:25.738Z,96293.00
2018-09-29T07:30:02.141Z,96295.00
2018-09-29T07:32:31.882Z,96297.00
2018-09-29T07:35:01.992Z,96294.00
2018-09-29T07:37:31.764Z,96298.00
2018-09-29T07:40:01.345Z,96291.00
2018-09-29T07:42:30.917Z,96287.00
2018-09-29T07:45:00.500Z,96297.00
2018-09-29T07:47:30.018Z,96292.00
2018-09-29T07:50:00.142Z,96298.00
2018-09-29T07:52:29.546Z,96295.00
2018-09-29T07:54:59.437Z,96300.00
2018-09-29T07:57:29.082Z,96299.00
2018-09-29T07:59:58.897Z,96300.00
2018-09-29T08:02:28.444Z,96297.00
2018-09-29T08:04:58.590Z,96296.00
2018-09-29T08:07:28.146Z,96302.00
2018-09-29T08:09:57.904Z,96302.00
2018-09-29T08:12:27.805Z,96305.00
2018-09-29T08:14:57.462Z,96301.00
2018-09-29T08:17:26.878Z,96303.00
2018-09-29T08:20:01.687Z,96297.00
2018-09-29T08:22:31.924Z,96297.00
2018-09-29T08:25:01.453Z,96300.00
2018-09-29T08:27:31.039Z,96293.00
2018-09-29T08:30:00.626Z,96301.00
2018-09-29T08:32:30.267Z,96303.00
2018-09-29T08:34:59.873Z,96302.00
2018-09-29T08:37:29.343Z,96300.00
2018-09-29T08:39:58.882Z,96298.00
2018-09-29T08:42:29.181Z,96294.00
2018-09-29T08:44:59.445Z,96290.00
2018-09-29T08:47:29.039Z,96298.00
2018-09-29T08:49:59.213Z,96299.00
2018-09-29T08:52:28.955Z,96295.00
2018-09-29T08:54:58.599Z,96296.00
2018-09-29T08:57:28.469Z,96300.00
2018-09-29T08:59:58.293Z,96285.00
2018-09-29T09:02:29.291Z,96293.00
2018-09-29T09:04:59.989Z,96298.00
2018-09-29T09:07:29.593Z,96296.00
2018-09-29T09:09:59.405Z,96289.00
2018-09-29T09:12:33.565Z,96279.00
2018-09-29T09:15:03.214Z,96284.00
2018-09-29T09:17:33.722Z,96274.00
2018-09-29T09:20:04.169Z,96276.00
2018-09-29T09:22:33.859Z,96274.00
2018-09-29T09:25:04.258Z,96267.00
2018-09-29T09:27:34.478Z,96264.00
2018-09-29T09:30:04.454Z,96265.00
2018-09-29T09:32:34.421Z,96267.00
2018-09-29T09:35:04.989Z,96258.00
2018-09-29T09:37:35.444Z,96263.00
2018-09-29T09:40:05.219Z,96256.00
2018-09-29T09:42:35.016Z,96258.00
2018-09-29T09:45:05.226Z,96259.00
2018-09-29T09:47:35.096Z,96253.00
2018-09-29T09:50:05.081Z,96249.00
2018-09-29T09:52:34.989Z,96250.00
2018-09-29T09:55:05.387Z,96253.00
2018-09-29T09:57:35.410Z,96248.00
2018-09-29T10:00:10.515Z,96257.00
2018-09-29T10:02:47.373Z,96251.00
2018-09-29T10:05:17.439Z,96240.00
2018-09-29T10:07:47.667Z,96254.00
2018-09-29T10:10:17.209Z,96243.00
2018-09-29T10:12:47.085Z,96248.00
2018-09-29T10:15:16.611Z,96243.00
2018-09-29T10:17:46.361Z,96252.00
2018-09-29T10:20:16.085Z,96248.00
2018-09-29T10:22:45.691Z,96248.00
2018-09-29T10:25:15.357Z,96246.00
2018-09-29T10:27:45.505Z,96242.00
2018-09-29T10:30:15.025Z,96253.00
2018-09-29T10:32:44.635Z,96248.00
2018-09-29T10:35:14.389Z,96241.00
2018-09-29T10:37:44.805Z,96245.00
2018-09-29T10:40:17.670Z,96244.00
2018-09-29T10:42:48.059Z,96238.00
2018-09-29T10:45:21.111Z,96245.00
2018-09-29T10:47:50.598Z,96248.00
2018-09-29T10:50:25.513Z,96249.00
2018-09-29T10:52:56.755Z,96243.00
2018-09-29T10:55:26.296Z,96241.00
2018-09-29T10:57:55.758Z,96248.00
2018-09-29T11:00:25.267Z,96241.00
2018-09-29T11:02:55.160Z,96234.00
2018-09-29T11:05:24.733Z,96232.00
2018-09-29T11:07:54.334Z,96231.00
2018-09-29T11:10:25.501Z,96228.00
2018-09-29T11:12:59.804Z,96227.00
2018-09-29T11:15:29.256Z,96230.00
2018-09-29T11:17:59.077Z,96229.00
2018-09-29T11:20:28.660Z,96228.00
2018-09-29T11:22:58.493Z,96223.00
2018-09-29T11:25:29.352Z,96223.00
2018-09-29T11:27:59.061Z,96219.00
2018-09-29T11:30:29.378Z,96211.00
2018-09-29T11:32:58.939Z,96209.00
2018-09-29T11:35:29.371Z,96209.00
2018-09-29T11:37:59.306Z,96199.00
2018-09-29T11:40:30.315Z,96194.00
2018-09-29T11:42:59.737Z,96195.00
2018-09-29T11:45:29.273Z,96199.00
2018-09-29T11:47:58.940Z,96193.00
2018-09-29T11:50:28.671Z,96191.00
2018-09-29T11:52:58.325Z,96189.00
2018-09-29T11:55:28.900Z,96196.00
2018-09-29T11:57:58.564Z,96188.00
2018-09-29T12:00:28.214Z,96180.00
2018-09-29T12:02:59.053Z,96178.00
2018-09-29T12:05:28.573Z,96171.00
2018-09-29T12:07:58.920Z,96174.00
2018-09-29T12:10:28.825Z,96181.00
2018-09-29T12:12:58.985Z,96173.00
2018-09-29T12:15:28.612Z,96169.00
2018-09-29T12:17:59.149Z,96158.00
2018-09-29T12:20:29.400Z,96163.00
2018-09-29T12:22:58.899Z,96152.00
2018-09-29T12:25:28.358Z,96147.00
2018-09-29T12:27:58.998Z,96138.00
2018-09-29T12:30:29.456Z,96152.00
2018-09-29T12:32:59.090Z,96147.00
2018-09-29T12:35:28.794Z,96140.00
2018-09-29T12:37:58.767Z,96150.00
2018-09-29T12:40:29.015Z,96144.00
2018-09-29T12:42:59.473Z,96140.00
2018-09-29T12:45:29.655Z,96145.00
2018-09-29T12:47:59.835Z,96130.00
2018-09-29T12:50:29.992Z,96128.00
2018-09-29T12:52:59.402Z,96126.00
2018-09-29T12:55:29.274Z,96123.00
2018-09-29T12:57:58.791Z,96125.00
2018-09-29T13:00:29.723Z,96120.00
2018-09-29T13:02:59.594Z,96116.00
2018-09-29T13:05:29.937Z,96112.00
2018-09-29T13:08:00.417Z,96107.00
2018-09-29T13:10:31.143Z,96112.00
2018-09-29T13:13:01.525Z,96108.00
2018-09-29T13:15:31.233Z,96104.00
2018-09-29T13:18:01.375Z,96093.00
2018-09-29T13:20:31.439Z,96092.00
2018-09-29T13:23:02.325Z,96092.00
2018-09-29T13:25:32.653Z,96088.00
2018-09-29T13:28:02.409Z,96092.00
2018-09-29T13:30:36.226Z,96093.00
2018-09-29T13:33:11.241Z,96083.00
2018-09-29T13:35:41.476Z,96083.00
2018-09-29T13:38:12.396Z,96078.00
2018-09-29T13:40:42.192Z,96079.00
2018-09-29T13:43:12.810Z,96069.00
2018-09-29T13:45:43.931Z,96078.00
2018-09-29T13:48:18.423Z,96078.00
2018-09-29T13:50:48.029Z,96074.00
2018-09-29T13:53:17.537Z,96065.00
2018-09-29T13:55:47.787Z,96063.00
2018-09-29T13:58:17.476Z,96061.00
2018-09-29T14:00:47.116Z,96062.00
2018-09-29T14:03:16.604Z,96057.00
2018-09-29T14:05:46.629Z,96055.00
2018-09-29T14:08:16.190Z,96060.00
2018-09-29T14:10:45.841Z,96053.00
2018-09-29T14:13:15.402Z,96046.00
2018-09-29T14:15:45.496Z,96042.00
2018-09-29T14:18:15.172Z,96042.00
2018-09-29T14:20:45.369Z,96034.00
2018-09-29T14:23:15.256Z,96032.00
2018-09-29T14:25:45.105Z,96028.00
2018-09-29T14:28:14.722Z,96029.00
2018-09-29T14:30:44.608Z,96027.00
2018-09-29T14:33:14.601Z,96021.00
2018-09-29T14:35:45.362Z,96021.00
2018-09-29T14:38:15.377Z,96015.00
2018-09-29T14:40:45.316Z,96016.00
2018-09-29T14:43:16.278Z,96012.00
2018-09-29T14:45:46.057Z,96018.00
2018-09-29T14:48:15.510Z,96014.00
2018-09-29T14:50:45.206Z,96013.00
2018-09-29T14:53:14.780Z,96016.00
2018-09-29T14:55:44.683Z,96006.00
2018-09-29T14:58:14.206Z,95999.00
2018-09-29T15:00:44.482Z,96011.00
2018-09-29T15:03:14.173Z,96007.00
2018-09-29T15:05:44.361Z,96007.00
2018-09-29T15:08:13.884Z,96002.00
2018-09-29T15:10:43.800Z,96005.00
2018-09-29T15:13:13.936Z,95994.00
2018-09-29T15:15:43.632Z,95992.00
2018-09-29T15:18:14.396Z,95990.00
2018-09-29T15:20:44.051Z,95987.00
2018-09-29T15:23:14.095Z,95987.00
2018-09-29T15:25:44.452Z,95981.00
2018-09-29T15:28:14.352Z,95988.00
2018-09-29T15:30:43.947Z,95986.00
2018-09-29T15:33:13.611Z,95984.00
2018-09-29T15:35:43.842Z,95966.00
2018-09-29T15:38:13.577Z,95979.00
2018-09-29T15:40:43.913Z,95982.00
2018-09-29T15:43:14.226Z,95983.00
2018-09-29T15:45:43.767Z,95987.00
2018-09-29T15:48:14.414Z,95982.00
2018-09-29T15:50:44.380Z,95974.00
2018-09-29T15:53:14.172Z,95977.00
2018-09-29T15:55:43.860Z,95975.00
2018-09-29T15:58:14.812Z,95974.00
2018-09-29T16:00:44.852Z,95985.00
2018-09-29T16:03:14.557Z,95978.00
2018-09-29T16:05:44.687Z,95977.00
2018-09-29T16:08:16.711Z,95982.00
2018-09-29T16:10:46.422Z,95982.00
2018-09-29T16:13:15.992Z,95979.00
2018-09-29T16:15:46.338Z,95981.00
2018-09-29T16:18:15.936Z,95987.00
2018-09-29T16:20:45.642Z,95981.00
2018-09-29T16:23:15.655Z,95984.00
2018-09-29T16:25:45.351Z,95979.00
2018-09-29T16:28:16.158Z,95984.00
2018-09-29T16:30:46.780Z,95993.00
2018-09-29T16:33:16.500Z,95988.00
2018-09-29T16:35:46.985Z,95995.00
2018-09-29T16:38:17.292Z,95998.00
2018-09-29T16:40:51.114Z,95991.00
2018-09-29T16:43:21.141Z,95997.00
2018-09-29T16:45:50.871Z,95996.00
2018-09-29T16:48:20.643Z,95995.00
2018-09-29T16:50:50.133Z,95999.00
2018-09-29T16:53:20.353Z,96005.00
2018-09-29T16:55:50.469Z,96004.00
2018-09-29T16:58:20.049Z,95997.00
2018-09-29T17:00:55.810Z,96009.00
2018-09-29T17:03:26.510Z,96005.00
2018-09-29T17:05:56.358Z,96011.00
2018-09-29T17:08:26.062Z,96002.00
2018-09-29T17:10:55.642Z,96007.00
2018-09-29T17:13:25.657Z,96005.00
2018-09-29T17:15:55.479Z,96016.00
2018-09-29T17:18:25.459Z,96005.00
2018-09-29T17:20:55.087Z,96008.00
2018-09-29T17:23:25.038Z,96011.00
2018-09-29T17:25:54.660Z,96004.00
2018-09-29T17:28:24.295Z,96001.00
2018-09-29T17:30:54.006Z,96010.00
2018-09-29T17:33:24.050Z,96012.00
2018-09-29T17:35:54.263Z,96011.00
2018-09-29T17:38:25.798Z,96007.00
2018-09-29T17:40:55.635Z,96009.00
2018-09-29T17:43:25.852Z,96008.00
2018-09-29T17:45:56.183Z,96005.00
2018-09-29T17:48:27.155Z,96004.00
2018-09-29T17:50:57.625Z,96007.00
2018-09-29T17:53:27.469Z,96003.00
2018-09-29T17:56:02.173Z,95998.00
2018-09-29T17:58:33.332Z,96004.00
2018-09-29T18:01:04.048Z,95996.00
2018-09-29T18:03:35.589Z,95997.00
2018-09-29T18:06:05.822Z,95995.00
2018-09-29T18:08:36.862Z,95993.00
2018-09-29T18:11:07.655Z,95995.00
2018-09-29T18:13:37.550Z,95998.00
2018-09-29T18:16:07.461Z,95990.00
2018-09-29T18:18:37.233Z,95988.00
2018-09-29T18:21:07.618Z,95992.00
2018-09-29T18:23:37.944Z,96000.00
2018-09-29T18:26:07.824Z,95986.00
2018-09-29T18:28:37.547Z,95993.00
2018-09-29T18:31:07.461Z,95982.00
2018-09-29T18:33:37.272Z,95984.00
2018-09-29T18:36:07.016Z,95980.00
2018-09-29T18:38:37.106Z,95984.00
2018-09-29T18:41:06.707Z,95982.00
2018-09-29T18:43:37.304Z,95978.00
2018-09-29T18:46:07.468Z,95988.00
2018-09-29T18:48:37.253Z,95987.00
2018-09-29T18:51:07.952Z,95986.00
2018-09-29T18:53:38.490Z,95981.00
2018-09-29T18:56:09.540Z,95978.00
2018-09-29T18:58:39.207Z,95979.00
2018-09-29T19:01:09.111Z,95967.00
2018-09-29T19:03:39.158Z,95967.00
2018-09-29T19:06:09.172Z,95974.00
2018-09-29T19:08:39.499Z,95974.00
2018-09-29T19:11:09.177Z,95972.00
2018-09-29T19:13:39.689Z,95964.00
2018-09-29T19:16:09.513Z,95971.00
2018-09-29T19:18:39.286Z,95956.00
2018-09-29T19:21:08.842Z,95959.00
2018-09-29T19:23:39.616Z,95956.00
2018-09-29T19:26:09.483Z,95960.00
2018-09-29T19:28:39.211Z,95955.00
2018-09-29T19:31:09.423Z,95963.00
2018-09-29T19:33:39.493Z,95963.00
2018-09-29T19:36:18.160Z,95962.00
2018-09-29T19:38:47.584Z,95961.00
2018-09-29T19:41:17.154Z,95955.00
2018-09-29T19:43:46.719Z,95959.00
2018-09-29T19:46:17.400Z,95961.00
2018-09-29T19:48:47.290Z,95964.00
2018-09-29T19:51:17.016Z,95953.00
2018-09-29T19:53:46.838Z,95951.00
2018-09-29T19:56:16.728Z,95944.00
2018-09-29T19:58:47.351Z,95949.00
2018-09-29T20:01:18.392Z,95946.00
2018-09-29T20:03:48.137Z,95954.00
2018-09-29T20:06:17.597Z,95951.00
2018-09-29T20:08:47.494Z,95953.00
2018-09-29T20:11:16.985Z,95941.00
2018-09-29T20:13:46.992Z,95948.00
2018-09-29T20:16:16.892Z,95941.00
2018-09-29T20:18:46.361Z,95948.00
2018-09-29T20:21:15.836Z,95940.00
2018-09-29T20:23:45.377Z,95947.00
2018-09-29T20:26:15.286Z,95943.00
2018-09-29T20:28:44.927Z,95940.00
2018-09-29T20:31:15.954Z,95946.00
2018-09-29T20:33:45.817Z,95951.00
2018-09-29T20:36:15.949Z,95934.00
2018-09-29T20:38:47.664Z,95935.00
2018-09-29T20:41:17.331Z,95928.00
2018-09-29T20:43:46.857Z,95937.00
2018-09-29T20:46:16.439Z,95935.00
2018-09-29T20:48:46.341Z,95928.00
2018-09-29T20:51:16.539Z,95923.00
2018-09-29T20:53:55.408Z,95930.00
2018-09-29T20:56:24.994Z,95921.00
2018-09-29T20:58:54.659Z,95922.00
2018-09-29T21:01:27.218Z,95929.00
2018-09-29T21:03:56.740Z,95923.00
2018-09-29T21:06:27.473Z,95930.00
2018-09-29T21:08:58.904Z,95925.00
2018-09-29T21:11:28.788Z,95917.00
2018-09-29T21:14:02.998Z,95916.00
2018-09-29T21:16:32.828Z,95923.00
2018-09-29T21:19:03.275Z,95913.00
2018-09-29T21:21:32.953Z,95906.00
2018-09-29T21:24:02.584Z,95903.00
2018-09-29T21:26:32.116Z,95903.00
2018-09-29T21:29:01.939Z,95895.00
2018-09-29T21:31:31.374Z,95896.00
2018-09-29T21:34:01.248Z,95901.00
2018-09-29T21:36:32.046Z,95881.00
2018-09-29T21:39:02.183Z,95902.00
2018-09-29T21:41:31.967Z,95897.00
2018-09-29T21:44:02.408Z,95891.00
2018-09-29T21:46:32.581Z,95898.00
2018-09-29T21:49:02.929Z,95902.00
2018-09-29T21:51:32.947Z,95908.00
2018-09-29T21:54:02.963Z,95901.00
2018-09-29T21:56:32.905Z,95907.00
2018-09-29T21:59:02.583Z,95909.00
2018-09-29T22:01:33.885Z,95904.00
2018-09-29T22:04:04.048Z,95900.00
2018-09-29T22:06:33.828Z,95895.00
2018-09-29T22:09:04.998Z,95895.00
2018-09-29T22:11:36.667Z,95895.00
2018-09-29T22:14:06.311Z,95893.00
2018-09-29T22:16:36.724Z,95879.00
2018-09-29T22:19:07.159Z,95870.00
2018-09-29T22:21:36.704Z,95869.00
2018-09-29T22:24:06.354Z,95878.00
2018-09-29T22:26:40.705Z,95874.00
2018-09-29T22:29:11.723Z,95871.00
2018-09-29T22:31:41.553Z,95872.00
2018-09-29T22:34:11.382Z,95881.00
2018-09-29T22:36:41.141Z,95870.00
2018-09-29T22:39:12.082Z,95859.00
2018-09-29T22:41:42.066Z,95864.00
2018-09-29T22:44:11.674Z,95863.00
2018-09-29T22:46:41.183Z,95855.00
2018-09-29T22:49:10.791Z,95863.00
2018-09-29T22:51:40.912Z,95855.00
2018-09-29T22:54:10.764Z,95852.00
2018-09-29T22:56:40.490Z,95850.00
2018-09-29T22:59:10.557Z,95844.00
2018-09-29T23:01:50.606Z,95853.00
2018-09-29T23:04:20.581Z,95856.00
2018-09-29T23:06:53.145Z,95854.00
2018-09-29T23:09:24.149Z,95840.00
2018-09-29T23:11:55.048Z,95848.00
2018-09-29T23:14:24.811Z,95848.00
2018-09-29T23:16:54.457Z,95853.00
2018-09-29T23:19:23.971Z,95836.00
2018-09-29T23:21:53.541Z,95836.00
2018-09-29T23:24:23.095Z,95843.00
2018-09-29T23:26:53.207Z,95842.00
2018-09-29T23:29:23.360Z,95838.00
2018-09-29T23:31:53.048Z,95835.00
2018-09-29T23:34:23.004Z,95834.00
2018-09-29T23:36:52.637Z,95830.00
2018-09-29T23:39:23.344Z,95830.00
2018-09-29T23:41:53.568Z,95829.00
2018-09-29T23:44:23.789Z,95828.00
2018-09-29T23:46:54.070Z,95835.00
2018-09-29T23:49:23.973Z,95837.00
2018-09-29T23:51:54.808Z,95825.00
2018-09-29T23:54:24.539Z,95818.00
2018-09-29T23:56:54.630Z,95825.00
2018-09-29T23:59:24.284Z,95824.00
